Airfield :
LOGIN :

Register | Disclaimer

   EN    FR    IT 

 










Legend :    VFR   Marginal VFR   IFR   Intensive IFR   Very Intensive IFR
Visi :
Ceiling :
>= 8 km
>= 3000ft
5 to 8 km
1000 to 3000 ft
1500m to 5 km
500 to 1000 ft
800 to 1500m
200 to 500 ft
< 800m
< 200 ft
Symbols :   Thunderstorms  Fog  Heavy snow  Heavy precipitations  Wind > 20 kt
SIGMETs :     Misc.  Thunderstorms  Icing  Turbulence  Mountain Waves  Volcanic Ashes






- Airport Elevation : 144 ft
- IATA code : PGF


LFMP - Perpignan

CURRENT METAR :
  • 021200Z AUTO 09008KT 050V150 CAVOK 28/13 Q1019 NOSIG

EXPIRED METARs :
  • 021130Z AUTO 10008KT 030V160 CAVOK 28/12 Q1019 NOSIG
  • 021100Z AUTO 11007KT 050V150 CAVOK 28/12 Q1019 NOSIG
  • 021030Z AUTO 11008KT 050V190 CAVOK 28/12 Q1019 NOSIG
  • 021000Z AUTO 09007KT 050V190 CAVOK 27/13 Q1019 NOSIG
  • 020930Z AUTO 08006KT 050V180 CAVOK 26/13 Q1019 NOSIG

TAF TAF LFMP
Valid from the 02 at 09:00 until the 03 at 09:00 UTC


020800Z 0209/0309 10010KT CAVOK
TEMPO 0217/0220 36010KT
BECMG 0220/0222 VRB03KT
ATIS : +33 4 68 63 75 12



MET'MAP, your aeronautical weather chart ! - Copyright ORBIFLY December 2007 - Disclaimer

ORBIFLY MET'MAP TEAM :

Programming & Development : Alexandra Zaïnal
Original concept : Baudouin d'Aumeries
Technical & hardware support : Manuel Goepfert
Assistance : Marc-Olivier Méhu




SOURCES & CREDITS :

   NOAA